sensor_id;sensor_type;location;lat;lon;timestamp;pressure;altitude;pressure_sealevel;temperature;humidity
84995;BME280;75312;47.528;19.016;2024-02-26T00:00:15;98154.31;;;9.54;93.80
84995;BME280;75312;47.528;19.016;2024-02-26T00:00:48;98149.88;;;9.55;93.97
84995;BME280;75312;47.528;19.016;2024-02-26T00:01:18;98147.28;;;9.55;93.88
84995;BME280;75312;47.528;19.016;2024-02-26T00:01:49;98151.03;;;9.52;93.67
84995;BME280;75312;47.528;19.016;2024-02-26T00:02:25;98139.75;;;9.60;93.56
84995;BME280;75312;47.528;19.016;2024-02-26T00:02:56;98143.34;;;9.67;93.87
84995;BME280;75312;47.528;19.016;2024-02-26T00:03:26;98140.22;;;9.72;93.22
84995;BME280;75312;47.528;19.016;2024-02-26T00:03:59;98145.13;;;9.75;92.90
84995;BME280;75312;47.528;19.016;2024-02-26T00:04:32;98147.09;;;9.73;93.52
84995;BME280;75312;47.528;19.016;2024-02-26T00:05:05;98144.81;;;9.70;93.05
84995;BME280;75312;47.528;19.016;2024-02-26T00:05:36;98134.53;;;9.60;93.04
84995;BME280;75312;47.528;19.016;2024-02-26T00:06:09;98139.94;;;9.58;93.74
84995;BME280;75312;47.528;19.016;2024-02-26T00:06:42;98139.75;;;9.60;93.60
84995;BME280;75312;47.528;19.016;2024-02-26T00:07:13;98134.84;;;9.57;93.64
84995;BME280;75312;47.528;19.016;2024-02-26T00:07:43;98143.19;;;9.61;93.29
84995;BME280;75312;47.528;19.016;2024-02-26T00:08:17;98146.63;;;9.61;93.16
84995;BME280;75312;47.528;19.016;2024-02-26T00:08:50;98139.91;;;9.67;93.30
84995;BME280;75312;47.528;19.016;2024-02-26T00:09:25;98145.97;;;9.67;93.67
84995;BME280;75312;47.528;19.016;2024-02-26T00:09:58;98140.75;;;9.43;93.44
84995;BME280;75312;47.528;19.016;2024-02-26T00:10:31;98151.03;;;9.44;93.90
84995;BME280;75312;47.528;19.016;2024-02-26T00:11:02;98146.13;;;9.33;93.86
84995;BME280;75312;47.528;19.016;2024-02-26T00:11:33;98141.22;;;9.30;94.23
84995;BME280;75312;47.528;19.016;2024-02-26T00:12:06;98141.41;;;9.28;94.84
84995;BME280;75312;47.528;19.016;2024-02-26T00:12:37;98141.41;;;9.37;94.85
84995;BME280;75312;47.528;19.016;2024-02-26T00:13:09;98141.22;;;9.30;94.48
84995;BME280;75312;47.528;19.016;2024-02-26T00:13:42;98140.25;;;9.31;94.59
84995;BME280;75312;47.528;19.016;2024-02-26T00:14:15;98144.34;;;9.34;94.97
84995;BME280;75312;47.528;19.016;2024-02-26T00:14:46;98145.63;;;9.38;95.10
84995;BME280;75312;47.528;19.016;2024-02-26T00:15:21;98147.09;;;9.40;94.95
84995;BME280;75312;47.528;19.016;2024-02-26T00:15:52;98142.84;;;9.39;94.65
84995;BME280;75312;47.528;19.016;2024-02-26T00:16:25;98142.22;;;9.37;94.67
84995;BME280;75312;47.528;19.016;2024-02-26T00:16:56;98143.84;;;9.38;95.17
84995;BME280;75312;47.528;19.016;2024-02-26T00:17:26;98138.13;;;9.43;94.30
84995;BME280;75312;47.528;19.016;2024-02-26T00:17:59;98139.59;;;9.37;94.36
84995;BME280;75312;47.528;19.016;2024-02-26T00:18:30;98143.03;;;9.21;94.92
84995;BME280;75312;47.528;19.016;2024-02-26T00:19:00;98142.03;;;9.22;94.91
84995;BME280;75312;47.528;19.016;2024-02-26T00:19:37;98141.56;;;9.35;95.05
84995;BME280;75312;47.528;19.016;2024-02-26T00:20:08;98144.34;;;9.25;95.04
84995;BME280;75312;47.528;19.016;2024-02-26T00:20:40;98144.19;;;9.27;95.12
84995;BME280;75312;47.528;19.016;2024-02-26T00:21:13;98145.81;;;9.36;94.79
84995;BME280;75312;47.528;19.016;2024-02-26T00:21:44;98134.72;;;9.26;94.74
84995;BME280;75312;47.528;19.016;2024-02-26T00:22:19;98130.13;;;9.28;95.08
84995;BME280;75312;47.528;19.016;2024-02-26T00:22:52;98141.88;;;9.24;95.23
84995;BME280;75312;47.528;19.016;2024-02-26T00:23:25;98149.41;;;9.35;95.27
84995;BME280;75312;47.528;19.016;2024-02-26T00:23:55;98145.16;;;9.42;95.14
84995;BME280;75312;47.528;19.016;2024-02-26T00:24:26;98145.31;;;9.41;94.42
84995;BME280;75312;47.528;19.016;2024-02-26T00:24:56;98146.47;;;9.46;94.55
84995;BME280;75312;47.528;19.016;2024-02-26T00:25:29;98134.53;;;9.36;94.65
84995;BME280;75312;47.528;19.016;2024-02-26T00:26:02;98135.34;;;9.36;94.89
84995;BME280;75312;47.528;19.016;2024-02-26T00:26:34;98140.06;;;9.41;94.66
84995;BME280;75312;47.528;19.016;2024-02-26T00:27:04;98145.31;;;9.49;94.69
84995;BME280;75312;47.528;19.016;2024-02-26T00:27:35;98150.22;;;9.52;94.05
84995;BME280;75312;47.528;19.016;2024-02-26T00:28:06;98145.31;;;9.49;94.08
84995;BME280;75312;47.528;19.016;2024-02-26T00:28:37;98137.63;;;9.47;93.92
84995;BME280;75312;47.528;19.016;2024-02-26T00:29:10;98140.25;;;9.47;94.15
84995;BME280;75312;47.528;19.016;2024-02-26T00:29:43;98137.47;;;9.49;93.74
84995;BME280;75312;47.528;19.016;2024-02-26T00:30:13;98140.75;;;9.51;94.10
84995;BME280;75312;47.528;19.016;2024-02-26T00:30:44;98139.09;;;9.58;94.16
84995;BME280;75312;47.528;19.016;2024-02-26T00:31:15;98148.72;;;9.57;93.85
84995;BME280;75312;47.528;19.016;2024-02-26T00:31:48;98140.59;;;9.28;94.28
84995;BME280;75312;47.528;19.016;2024-02-26T00:32:19;98139.44;;;9.22;94.59
84995;BME280;75312;47.528;19.016;2024-02-26T00:32:50;98135.16;;;9.13;94.87
84995;BME280;75312;47.528;19.016;2024-02-26T00:33:20;98139.41;;;9.14;94.90
84995;BME280;75312;47.528;19.016;2024-02-26T00:33:51;98137.94;;;9.12;95.38
84995;BME280;75312;47.528;19.016;2024-02-26T00:34:21;98137.16;;;9.19;95.21
84995;BME280;75312;47.528;19.016;2024-02-26T00:34:52;98135.69;;;9.25;94.96
84995;BME280;75312;47.528;19.016;2024-02-26T00:35:22;98135.19;;;9.29;94.88
84995;BME280;75312;47.528;19.016;2024-02-26T00:35:53;98133.91;;;9.34;95.20
84995;BME280;75312;47.528;19.016;2024-02-26T00:36:24;98131.13;;;9.35;94.44
84995;BME280;75312;47.528;19.016;2024-02-26T00:36:54;98131.28;;;9.42;94.59
84995;BME280;75312;47.528;19.016;2024-02-26T00:37:25;98132.75;;;9.44;93.92
84995;BME280;75312;47.528;19.016;2024-02-26T00:37:55;98138.13;;;9.51;94.42
84995;BME280;75312;47.528;19.016;2024-02-26T00:38:26;98132.41;;;9.55;94.10
84995;BME280;75312;47.528;19.016;2024-02-26T00:38:56;98129.13;;;9.53;93.94
84995;BME280;75312;47.528;19.016;2024-02-26T00:39:29;98131.94;;;9.44;93.45
84995;BME280;75312;47.528;19.016;2024-02-26T00:40:00;98131.59;;;9.47;93.79
84995;BME280;75312;47.528;19.016;2024-02-26T00:40:36;98132.75;;;9.44;94.19
84995;BME280;75312;47.528;19.016;2024-02-26T00:41:12;98130.28;;;9.35;94.40
84995;BME280;75312;47.528;19.016;2024-02-26T00:41:44;98125.38;;;9.31;94.65
84995;BME280;75312;47.528;19.016;2024-02-26T00:42:15;98132.22;;;9.32;94.61
84995;BME280;75312;47.528;19.016;2024-02-26T00:42:45;98119.84;;;9.35;94.34
84995;BME280;75312;47.528;19.016;2024-02-26T00:43:18;98124.09;;;9.44;94.19
84995;BME280;75312;47.528;19.016;2024-02-26T00:43:48;98119.66;;;9.44;94.16
84995;BME280;75312;47.528;19.016;2024-02-26T00:44:19;98123.09;;;9.53;94.34
84995;BME280;75312;47.528;19.016;2024-02-26T00:44:51;98123.25;;;9.51;93.83
84995;BME280;75312;47.528;19.016;2024-02-26T00:45:22;98124.72;;;9.54;93.64
84995;BME280;75312;47.528;19.016;2024-02-26T00:45:52;98123.56;;;9.48;93.39
84995;BME280;75312;47.528;19.016;2024-02-26T00:46:23;98120.78;;;9.50;93.87
84995;BME280;75312;47.528;19.016;2024-02-26T00:46:54;98125.72;;;9.53;93.28
84995;BME280;75312;47.528;19.016;2024-02-26T00:47:24;98121.13;;;9.55;93.66
84995;BME280;75312;47.528;19.016;2024-02-26T00:47:55;98127.81;;;9.57;93.66
84995;BME280;75312;47.528;19.016;2024-02-26T00:48:30;98127.16;;;9.55;93.35
84995;BME280;75312;47.528;19.016;2024-02-26T00:49:00;98126.88;;;9.50;93.07
84995;BME280;75312;47.528;19.016;2024-02-26T00:49:34;98122.59;;;9.49;93.86
84995;BME280;75312;47.528;19.016;2024-02-26T00:50:08;98129.47;;;9.50;93.76
84995;BME280;75312;47.528;19.016;2024-02-26T00:50:38;98129.97;;;9.38;93.77
84995;BME280;75312;47.528;19.016;2024-02-26T00:51:09;98124.56;;;9.47;94.18
84995;BME280;75312;47.528;19.016;2024-02-26T00:51:39;98124.56;;;9.47;93.67
84995;BME280;75312;47.528;19.016;2024-02-26T00:52:12;98120.16;;;9.48;93.54
84995;BME280;75312;47.528;19.016;2024-02-26T00:52:43;98120.31;;;9.46;93.97
84995;BME280;75312;47.528;19.016;2024-02-26T00:53:14;98121.94;;;9.47;93.94
84995;BME280;75312;47.528;19.016;2024-02-26T00:53:44;98116.41;;;9.50;93.96
84995;BME280;75312;47.528;19.016;2024-02-26T00:54:15;98117.22;;;9.51;93.83
84995;BME280;75312;47.528;19.016;2024-02-26T00:54:47;98119.50;;;9.54;93.75
84995;BME280;75312;47.528;19.016;2024-02-26T00:55:20;98118.50;;;9.55;93.86
84995;BME280;75312;47.528;19.016;2024-02-26T00:55:53;98124.91;;;9.52;93.47
84995;BME280;75312;47.528;19.016;2024-02-26T00:56:24;98122.13;;;9.46;93.40
84995;BME280;75312;47.528;19.016;2024-02-26T00:56:55;98119.34;;;9.47;93.56
84995;BME280;75312;47.528;19.016;2024-02-26T00:57:28;98127.34;;;9.46;94.15
84995;BME280;75312;47.528;19.016;2024-02-26T00:57:58;98117.88;;;9.45;94.09
84995;BME280;75312;47.528;19.016;2024-02-26T00:58:31;98116.06;;;9.45;94.13
84995;BME280;75312;47.528;19.016;2024-02-26T00:59:02;98125.38;;;9.48;93.67
84995;BME280;75312;47.528;19.016;2024-02-26T00:59:36;98124.91;;;9.52;93.97
84995;BME280;75312;47.528;19.016;2024-02-26T01:00:12;98117.22;;;9.59;93.59
84995;BME280;75312;47.528;19.016;2024-02-26T01:00:45;98119.50;;;9.54;93.64
84995;BME280;75312;47.528;19.016;2024-02-26T01:01:16;98118.03;;;9.51;93.03
84995;BME280;75312;47.528;19.016;2024-02-26T01:01:46;98116.72;;;9.47;93.36
84995;BME280;75312;47.528;19.016;2024-02-26T01:02:17;98114.75;;;9.49;93.84
84995;BME280;75312;47.528;19.016;2024-02-26T01:02:50;98113.94;;;9.49;93.33
84995;BME280;75312;47.528;19.016;2024-02-26T01:03:20;98110.84;;;9.45;93.24
84995;BME280;75312;47.528;19.016;2024-02-26T01:03:51;98109.38;;;9.43;93.44
84995;BME280;75312;47.528;19.016;2024-02-26T01:04:24;98105.63;;;9.45;93.48
84995;BME280;75312;47.528;19.016;2024-02-26T01:04:54;98112.00;;;9.51;93.34
84995;BME280;75312;47.528;19.016;2024-02-26T01:05:25;98105.78;;;9.52;93.06
84995;BME280;75312;47.528;19.016;2024-02-26T01:05:58;98109.38;;;9.51;93.61
84995;BME280;75312;47.528;19.016;2024-02-26T01:06:29;98104.47;;;9.48;93.10
84995;BME280;75312;47.528;19.016;2024-02-26T01:07:07;98098.91;;;9.51;93.68
84995;BME280;75312;47.528;19.016;2024-02-26T01:07:38;98106.25;;;9.47;93.20
84995;BME280;75312;47.528;19.016;2024-02-26T01:08:11;98111.81;;;9.52;92.86
84995;BME280;75312;47.528;19.016;2024-02-26T01:08:42;98104.97;;;9.51;92.93
84995;BME280;75312;47.528;19.016;2024-02-26T01:09:12;98108.88;;;9.47;93.46
84995;BME280;75312;47.528;19.016;2024-02-26T01:09:43;98109.69;;;9.48;93.57
84995;BME280;75312;47.528;19.016;2024-02-26T01:10:13;98112.31;;;9.48;93.77
84995;BME280;75312;47.528;19.016;2024-02-26T01:10:44;98109.03;;;9.46;93.86
84995;BME280;75312;47.528;19.016;2024-02-26T01:11:15;98112.47;;;9.46;93.67
84995;BME280;75312;47.528;19.016;2024-02-26T01:11:45;98108.72;;;9.49;93.87
84995;BME280;75312;47.528;19.016;2024-02-26T01:12:17;98111.81;;;9.52;93.91
84995;BME280;75312;47.528;19.016;2024-02-26T01:12:47;98107.06;;;9.56;93.69
84995;BME280;75312;47.528;19.016;2024-02-26T01:13:21;98103.16;;;9.60;93.30
84995;BME280;75312;47.528;19.016;2024-02-26T01:13:51;98108.22;;;9.53;93.05
84995;BME280;75312;47.528;19.016;2024-02-26T01:14:26;98108.06;;;9.55;93.15
84995;BME280;75312;47.528;19.016;2024-02-26T01:14:57;98105.94;;;9.58;92.97
84995;BME280;75312;47.528;19.016;2024-02-26T01:15:30;98107.56;;;9.59;93.29
84995;BME280;75312;47.528;19.016;2024-02-26T01:16:03;98109.84;;;9.63;92.68
84995;BME280;75312;47.528;19.016;2024-02-26T01:16:34;98109.19;;;9.61;93.15
84995;BME280;75312;47.528;19.016;2024-02-26T01:17:04;98105.59;;;9.62;92.67
84995;BME280;75312;47.528;19.016;2024-02-26T01:17:37;98108.06;;;9.55;92.83
84995;BME280;75312;47.528;19.016;2024-02-26T01:18:09;98104.28;;;9.57;93.21
84995;BME280;75312;47.528;19.016;2024-02-26T01:18:39;98107.88;;;9.65;92.73
84995;BME280;75312;47.528;19.016;2024-02-26T01:19:10;98101.69;;;9.49;92.94
84995;BME280;75312;47.528;19.016;2024-02-26T01:19:41;98108.22;;;9.45;92.73
84995;BME280;75312;47.528;19.016;2024-02-26T01:20:11;98104.81;;;9.45;92.89
84995;BME280;75312;47.528;19.016;2024-02-26T01:20:44;98106.78;;;9.43;93.43
84995;BME280;75312;47.528;19.016;2024-02-26T01:21:14;98102.34;;;9.43;93.51
84995;BME280;75312;47.528;19.016;2024-02-26T01:21:45;98103.81;;;9.46;93.41
84995;BME280;75312;47.528;19.016;2024-02-26T01:22:18;98099.56;;;9.45;93.39
84995;BME280;75312;47.528;19.016;2024-02-26T01:22:48;98104.47;;;9.31;93.86
84995;BME280;75312;47.528;19.016;2024-02-26T01:23:19;98095.97;;;9.38;93.83
84995;BME280;75312;47.528;19.016;2024-02-26T01:23:49;98102.84;;;9.39;93.63
84995;BME280;75312;47.528;19.016;2024-02-26T01:24:20;98102.19;;;9.45;93.33
84995;BME280;75312;47.528;19.016;2024-02-26T01:24:53;98098.09;;;9.50;93.24
84995;BME280;75312;47.528;19.016;2024-02-26T01:25:24;98099.41;;;9.54;93.34
84995;BME280;75312;47.528;19.016;2024-02-26T01:25:54;98098.25;;;9.57;93.45
84995;BME280;75312;47.528;19.016;2024-02-26T01:26:28;98100.84;;;9.57;92.96
84995;BME280;75312;47.528;19.016;2024-02-26T01:27:01;98097.44;;;9.56;93.17
84995;BME280;75312;47.528;19.016;2024-02-26T01:27:32;98094.34;;;9.53;93.14
84995;BME280;75312;47.528;19.016;2024-02-26T01:28:05;98099.75;;;9.43;93.44
84995;BME280;75312;47.528;19.016;2024-02-26T01:28:36;98096.16;;;9.36;93.50
84995;BME280;75312;47.528;19.016;2024-02-26T01:29:06;98106.78;;;9.26;93.51
84995;BME280;75312;47.528;19.016;2024-02-26T01:29:37;98099.06;;;9.33;94.04
84995;BME280;75312;47.528;19.016;2024-02-26T01:30:08;98098.75;;;9.28;94.23
84995;BME280;75312;47.528;19.016;2024-02-26T01:30:41;98100.41;;;9.21;94.41
84995;BME280;75312;47.528;19.016;2024-02-26T01:31:11;98098.94;;;9.18;94.65
84995;BME280;75312;47.528;19.016;2024-02-26T01:31:44;98105.97;;;9.26;94.62
84995;BME280;75312;47.528;19.016;2024-02-26T01:32:15;98105.44;;;9.30;94.61
84995;BME280;75312;47.528;19.016;2024-02-26T01:32:45;98108.56;;;9.34;94.08
84995;BME280;75312;47.528;19.016;2024-02-26T01:33:16;98094.81;;;9.40;93.90
84995;BME280;75312;47.528;19.016;2024-02-26T01:33:46;98098.59;;;9.38;93.61
84995;BME280;75312;47.528;19.016;2024-02-26T01:34:17;98106.09;;;9.32;93.85
84995;BME280;75312;47.528;19.016;2024-02-26T01:34:48;98106.09;;;9.32;93.89
84995;BME280;75312;47.528;19.016;2024-02-26T01:35:19;98102.53;;;9.42;93.60
84995;BME280;75312;47.528;19.016;2024-02-26T01:35:50;98098.13;;;9.42;94.04
84995;BME280;75312;47.528;19.016;2024-02-26T01:36:23;98097.31;;;9.42;93.68
84995;BME280;75312;47.528;19.016;2024-02-26T01:36:54;98095.50;;;9.42;93.67
84995;BME280;75312;47.528;19.016;2024-02-26T01:37:26;98099.06;;;9.41;93.47
84995;BME280;75312;47.528;19.016;2024-02-26T01:37:57;98103.66;;;9.39;93.49
84995;BME280;75312;47.528;19.016;2024-02-26T01:38:29;98104.47;;;9.40;94.00
84995;BME280;75312;47.528;19.016;2024-02-26T01:39:00;98096.16;;;9.36;93.77
84995;BME280;75312;47.528;19.016;2024-02-26T01:39:30;98099.06;;;9.41;93.81
84995;BME280;75312;47.528;19.016;2024-02-26T01:40:01;98096.97;;;9.37;94.10
84995;BME280;75312;47.528;19.016;2024-02-26T01:40:34;98102.34;;;9.43;94.36
84995;BME280;75312;47.528;19.016;2024-02-26T01:41:04;98099.06;;;9.41;93.70
84995;BME280;75312;47.528;19.016;2024-02-26T01:41:37;98097.44;;;9.40;94.16
84995;BME280;75312;47.528;19.016;2024-02-26T01:42:08;98101.03;;;9.39;93.98
84995;BME280;75312;47.528;19.016;2024-02-26T01:42:39;98100.41;;;9.37;94.29
84995;BME280;75312;47.528;19.016;2024-02-26T01:43:11;98102.34;;;9.43;94.05
84995;BME280;75312;47.528;19.016;2024-02-26T01:43:42;98099.56;;;9.45;93.60
84995;BME280;75312;47.528;19.016;2024-02-26T01:44:15;98099.22;;;9.48;93.72
84995;BME280;75312;47.528;19.016;2024-02-26T01:44:48;98096.78;;;9.54;93.88
84995;BME280;75312;47.528;19.016;2024-02-26T01:45:18;98091.88;;;9.59;93.23
84995;BME280;75312;47.528;19.016;2024-02-26T01:45:55;98098.59;;;9.46;93.33
84995;BME280;75312;47.528;19.016;2024-02-26T01:46:25;98092.38;;;9.47;93.52
84995;BME280;75312;47.528;19.016;2024-02-26T01:46:59;98096.63;;;9.48;93.73
84995;BME280;75312;47.528;19.016;2024-02-26T01:47:34;98092.72;;;9.44;93.30
84995;BME280;75312;47.528;19.016;2024-02-26T01:48:07;98096.31;;;9.35;93.80
84995;BME280;75312;47.528;19.016;2024-02-26T01:48:38;98090.59;;;9.39;94.19
84995;BME280;75312;47.528;19.016;2024-02-26T01:49:11;98093.84;;;9.41;93.84
84995;BME280;75312;47.528;19.016;2024-02-26T01:49:45;98098.94;;;9.35;94.14
84995;BME280;75312;47.528;19.016;2024-02-26T01:50:17;98094.00;;;9.31;93.94
84995;BME280;75312;47.528;19.016;2024-02-26T01:50:48;98097.94;;;9.19;94.89
84995;BME280;75312;47.528;19.016;2024-02-26T01:51:19;98101.22;;;9.21;94.61
84995;BME280;75312;47.528;19.016;2024-02-26T01:51:54;98105.44;;;9.22;94.77
84995;BME280;75312;47.528;19.016;2024-02-26T01:52:30;98100.56;;;9.27;94.90
84995;BME280;75312;47.528;19.016;2024-02-26T01:53:03;98096.16;;;9.36;94.06
84995;BME280;75312;47.528;19.016;2024-02-26T01:53:34;98094.53;;;9.35;94.14
84995;BME280;75312;47.528;19.016;2024-02-26T01:54:07;98091.75;;;9.37;94.29
84995;BME280;75312;47.528;19.016;2024-02-26T01:54:40;98091.75;;;9.37;94.33
84995;BME280;75312;47.528;19.016;2024-02-26T01:55:11;98094.19;;;9.38;94.24
84995;BME280;75312;47.528;19.016;2024-02-26T01:55:42;98095.63;;;9.41;94.40
84995;BME280;75312;47.528;19.016;2024-02-26T01:56:14;98095.34;;;9.36;94.39
84995;BME280;75312;47.528;19.016;2024-02-26T01:56:46;98097.78;;;9.37;93.90
84995;BME280;75312;47.528;19.016;2024-02-26T01:57:16;98093.19;;;9.39;93.95
84995;BME280;75312;47.528;19.016;2024-02-26T01:57:49;98093.38;;;9.38;93.81
84995;BME280;75312;47.528;19.016;2024-02-26T01:58:22;98091.56;;;9.38;94.41
84995;BME280;75312;47.528;19.016;2024-02-26T01:58:53;98097.78;;;9.37;94.02
84995;BME280;75312;47.528;19.016;2024-02-26T01:59:29;98095.00;;;9.39;94.30
84995;BME280;75312;47.528;19.016;2024-02-26T02:00:00;98090.28;;;9.42;93.82
84995;BME280;75312;47.528;19.016;2024-02-26T02:00:31;98092.38;;;9.39;94.25
84995;BME280;75312;47.528;19.016;2024-02-26T02:01:03;98089.94;;;9.29;94.34
84995;BME280;75312;47.528;19.016;2024-02-26T02:01:34;98097.63;;;9.14;94.88
84995;BME280;75312;47.528;19.016;2024-02-26T02:02:08;98094.00;;;9.15;95.05
84995;BME280;75312;47.528;19.016;2024-02-26T02:02:39;98090.59;;;9.23;95.07
84995;BME280;75312;47.528;19.016;2024-02-26T02:03:12;98097.44;;;9.24;95.09
84995;BME280;75312;47.528;19.016;2024-02-26T02:03:43;98092.38;;;9.22;94.97
84995;BME280;75312;47.528;19.016;2024-02-26T02:04:16;98086.84;;;9.25;94.72
84995;BME280;75312;47.528;19.016;2024-02-26T02:04:47;98088.97;;;9.30;94.92
84995;BME280;75312;47.528;19.016;2024-02-26T02:05:20;98087.16;;;9.30;94.54
84995;BME280;75312;47.528;19.016;2024-02-26T02:05:54;98083.09;;;9.36;94.21
84995;BME280;75312;47.528;19.016;2024-02-26T02:06:27;98082.09;;;9.37;94.16
84995;BME280;75312;47.528;19.016;2024-02-26T02:07:00;98080.47;;;9.36;94.27
84995;BME280;75312;47.528;19.016;2024-02-26T02:07:31;98080.63;;;9.35;93.98
84995;BME280;75312;47.528;19.016;2024-02-26T02:08:05;98087.00;;;9.32;94.51
84995;BME280;75312;47.528;19.016;2024-02-26T02:08:38;98083.91;;;9.28;94.29
84995;BME280;75312;47.528;19.016;2024-02-26T02:09:09;98091.41;;;9.23;94.27
84995;BME280;75312;47.528;19.016;2024-02-26T02:09:42;98090.59;;;9.23;95.07
84995;BME280;75312;47.528;19.016;2024-02-26T02:10:16;98086.69;;;9.35;94.65
84995;BME280;75312;47.528;19.016;2024-02-26T02:10:51;98091.56;;;9.38;94.46
84995;BME280;75312;47.528;19.016;2024-02-26T02:11:24;98094.50;;;9.43;94.48
84995;BME280;75312;47.528;19.016;2024-02-26T02:11:55;98093.69;;;9.43;94.46
84995;BME280;75312;47.528;19.016;2024-02-26T02:12:28;98099.25;;;9.40;94.24
84995;BME280;75312;47.528;19.016;2024-02-26T02:12:59;98095.00;;;9.39;94.39
84995;BME280;75312;47.528;19.016;2024-02-26T02:13:32;98093.69;;;9.43;94.14
84995;BME280;75312;47.528;19.016;2024-02-26T02:14:02;98099.56;;;9.45;94.43
84995;BME280;75312;47.528;19.016;2024-02-26T02:14:33;98094.69;;;9.42;94.39
84995;BME280;75312;47.528;19.016;2024-02-26T02:15:07;98093.53;;;9.44;94.39
84995;BME280;75312;47.528;19.016;2024-02-26T02:15:38;98092.22;;;9.48;94.42
84995;BME280;75312;47.528;19.016;2024-02-26T02:16:10;98092.38;;;9.47;93.91
84995;BME280;75312;47.528;19.016;2024-02-26T02:16:41;98096.16;;;9.44;93.93
84995;BME280;75312;47.528;19.016;2024-02-26T02:17:12;98098.09;;;9.50;94.16
84995;BME280;75312;47.528;19.016;2024-02-26T02:17:45;98094.50;;;9.51;93.95
84995;BME280;75312;47.528;19.016;2024-02-26T02:18:19;98094.34;;;9.53;93.87
84995;BME280;75312;47.528;19.016;2024-02-26T02:18:49;98091.56;;;9.54;94.08
84995;BME280;75312;47.528;19.016;2024-02-26T02:19:22;98091.72;;;9.53;94.10
84995;BME280;75312;47.528;19.016;2024-02-26T02:19:52;98087.31;;;9.53;94.12
84995;BME280;75312;47.528;19.016;2024-02-26T02:20:33;98092.69;;;9.60;93.73
84995;BME280;75312;47.528;19.016;2024-02-26T02:21:04;98091.88;;;9.59;93.44
84995;BME280;75312;47.528;19.016;2024-02-26T02:21:37;98094.63;;;9.58;93.48
84995;BME280;75312;47.528;19.016;2024-02-26T02:22:07;98098.25;;;9.57;93.34
84995;BME280;75312;47.528;19.016;2024-02-26T02:22:40;98096.63;;;9.56;93.47
84995;BME280;75312;47.528;19.016;2024-02-26T02:23:11;98099.75;;;9.51;93.36
84995;BME280;75312;47.528;19.016;2024-02-26T02:23:44;98098.25;;;9.49;93.88
84995;BME280;75312;47.528;19.016;2024-02-26T02:24:16;98099.22;;;9.48;93.91
84995;BME280;75312;47.528;19.016;2024-02-26T02:24:51;98100.88;;;9.49;93.95
84995;BME280;75312;47.528;19.016;2024-02-26T02:25:22;98095.63;;;9.41;93.96
84995;BME280;75312;47.528;19.016;2024-02-26T02:25:56;98095.66;;;9.32;94.25
84995;BME280;75312;47.528;19.016;2024-02-26T02:26:26;98098.59;;;9.38;94.42
84995;BME280;75312;47.528;19.016;2024-02-26T02:26:57;98099.06;;;9.41;93.88
84995;BME280;75312;47.528;19.016;2024-02-26T02:27:29;98097.94;;;9.44;94.28
84995;BME280;75312;47.528;19.016;2024-02-26T02:28:03;98092.72;;;9.44;93.85
84995;BME280;75312;47.528;19.016;2024-02-26T02:28:33;98097.31;;;9.42;94.29
84995;BME280;75312;47.528;19.016;2024-02-26T02:29:06;98099.41;;;9.46;93.68
84995;BME280;75312;47.528;19.016;2024-02-26T02:29:37;98098.59;;;9.54;94.10
84995;BME280;75312;47.528;19.016;2024-02-26T02:30:09;98103.97;;;9.52;93.42
84995;BME280;75312;47.528;19.016;2024-02-26T02:30:42;98102.19;;;9.53;93.56
84995;BME280;75312;47.528;19.016;2024-02-26T02:31:14;98099.41;;;9.54;93.46
84995;BME280;75312;47.528;19.016;2024-02-26T02:31:45;98108.06;;;9.55;93.56
84995;BME280;75312;47.528;19.016;2024-02-26T02:32:17;98108.56;;;9.50;93.58
84995;BME280;75312;47.528;19.016;2024-02-26T02:32:48;98104.78;;;9.53;93.70
84995;BME280;75312;47.528;19.016;2024-02-26T02:33:25;98107.06;;;9.56;93.76
84995;BME280;75312;47.528;19.016;2024-02-26T02:33:56;98096.31;;;9.59;93.59
84995;BME280;75312;47.528;19.016;2024-02-26T02:34:28;98099.72;;;9.59;93.34
84995;BME280;75312;47.528;19.016;2024-02-26T02:34:59;98101.84;;;9.56;93.46
84995;BME280;75312;47.528;19.016;2024-02-26T02:35:29;98096.59;;;9.64;92.99
84995;BME280;75312;47.528;19.016;2024-02-26T02:36:00;98095.31;;;9.60;92.66
84995;BME280;75312;47.528;19.016;2024-02-26T02:36:33;98100.84;;;9.65;93.17
84995;BME280;75312;47.528;19.016;2024-02-26T02:37:08;98098.41;;;9.64;92.70
84995;BME280;75312;47.528;19.016;2024-02-26T02:37:39;98102.16;;;9.61;92.89
84995;BME280;75312;47.528;19.016;2024-02-26T02:38:09;98094.31;;;9.61;93.17
84995;BME280;75312;47.528;19.016;2024-02-26T02:38:51;98096.31;;;9.59;93.01
84995;BME280;75312;47.528;19.016;2024-02-26T02:39:22;98101.34;;;9.61;93.25
84995;BME280;75312;47.528;19.016;2024-02-26T02:39:55;98092.88;;;9.58;93.01
84995;BME280;75312;47.528;19.016;2024-02-26T02:40:27;98094.31;;;9.61;93.46
84995;BME280;75312;47.528;19.016;2024-02-26T02:40:58;98094.31;;;9.61;93.01
84995;BME280;75312;47.528;19.016;2024-02-26T02:41:29;98093.00;;;9.65;93.13
84995;BME280;75312;47.528;19.016;2024-02-26T02:42:00;98095.78;;;9.64;92.59
84995;BME280;75312;47.528;19.016;2024-02-26T02:42:33;98091.88;;;9.59;92.85
84995;BME280;75312;47.528;19.016;2024-02-26T02:43:06;98096.31;;;9.59;92.86
84995;BME280;75312;47.528;19.016;2024-02-26T02:43:36;98095.47;;;9.58;93.40
84995;BME280;75312;47.528;19.016;2024-02-26T02:44:07;98091.72;;;9.61;93.27
84995;BME280;75312;47.528;19.016;2024-02-26T02:44:40;98092.34;;;9.63;93.40
84995;BME280;75312;47.528;19.016;2024-02-26T02:45:12;98092.34;;;9.63;92.83
84995;BME280;75312;47.528;19.016;2024-02-26T02:45:43;98093.34;;;9.62;93.29
84995;BME280;75312;47.528;19.016;2024-02-26T02:46:14;98097.94;;;9.60;92.91
84995;BME280;75312;47.528;19.016;2024-02-26T02:46:44;98101.19;;;9.54;93.58
84995;BME280;75312;47.528;19.016;2024-02-26T02:47:15;98094.81;;;9.48;93.41
84995;BME280;75312;47.528;19.016;2024-02-26T02:47:45;98089.28;;;9.51;93.32
84995;BME280;75312;47.528;19.016;2024-02-26T02:48:18;98095.31;;;9.60;93.13
84995;BME280;75312;47.528;19.016;2024-02-26T02:48:49;98096.44;;;9.57;93.09